Hickory Grove, Louisiana
Current Conditions -  °F | °C
As of 11:53 PM on Friday 28 Nov 2014 (Local Time) from KESF Reporting Station
Clear Clear  
Wind Chill:   Ceiling: Unl
Heat Index:   Visibility: 10mi
Dew Point:   Wind: 5mph
Humidity: 93%   Direction: 180°S
Pressure: 30.16"   Gusts: NA
Location:  31.3606°N, 92.2142°W
Report Text: KESF 290553Z AUTO 18004KT 10SM CLR 09/08 A3016 RMK AO2 SLP213 T00940083 10117 20072 401721017 58012
Loading
Personal Weather Stations






























Interactive Weather Map New forecast layout! Learn more

10-Day Weather Forecast

Advertisements
Track Severe Weather on mobile